Time;durP1;ratioP1;P1;durP2;ratioP2;P2;SDS_P1;SDS_P2;PMS_P1;PMS_P2;Temp;Humidity;BMP_temperature;BMP_pressure;BME280_temperature;BME280_humidity;BME280_pressure;Samples;Min_cycle;Max_cycle;Signal;HPM_P1;HPM_P2
2022/09/02 00:01:18;;;;;;;3.42;2.83;;;;;;;13.06;100.00;95928.91;4983233;28;24452;-71
2022/09/02 00:03:45;;;;;;;4.15;2.90;;;;;;;13.05;100.00;95929.88;4988379;28;24436;-71
2022/09/02 00:06:12;;;;;;;4.20;3.20;;;;;;;13.06;100.00;95920.28;4986107;28;24440;-71
2022/09/02 00:08:41;;;;;;;4.55;2.88;;;;;;;13.07;100.00;95925.38;4989819;28;24441;-71
2022/09/02 00:11:09;;;;;;;3.83;3.00;;;;;;;13.05;100.00;95916.88;4983073;28;24440;-71
2022/09/02 00:13:37;;;;;;;4.53;3.03;;;;;;;12.91;100.00;95918.78;4987628;28;24444;-71
2022/09/02 00:16:05;;;;;;;3.67;2.70;;;;;;;12.88;100.00;95914.59;4986149;28;24444;-71
2022/09/02 00:18:32;;;;;;;2.90;2.70;;;;;;;12.85;100.00;95914.81;4982084;28;24799;-71
2022/09/02 00:20:59;;;;;;;7.32;3.17;;;;;;;12.96;100.00;95906.25;4984166;28;24447;-71
2022/09/02 00:23:26;;;;;;;3.03;2.40;;;;;;;12.83;100.00;95907.13;4986037;28;25024;-72
2022/09/02 00:25:54;;;;;;;3.88;2.90;;;;;;;12.75;100.00;95896.41;4986780;28;24444;-72
2022/09/02 00:28:20;;;;;;;2.38;2.17;;;;;;;12.70;100.00;95901.09;4981977;28;24433;-71
2022/09/02 00:30:47;;;;;;;2.90;2.70;;;;;;;12.74;100.00;95907.75;4985638;28;24441;-71
2022/09/02 00:33:14;;;;;;;3.70;2.55;;;;;;;12.74;100.00;95901.72;4984551;28;24441;-71
2022/09/02 00:35:42;;;;;;;4.95;2.50;;;;;;;12.78;100.00;95903.16;4979664;28;25003;-71
2022/09/02 00:38:10;;;;;;;2.95;2.53;;;;;;;12.74;100.00;95906.94;4982327;28;24440;-71
2022/09/02 00:40:37;;;;;;;2.92;2.63;;;;;;;12.74;100.00;95897.34;4986476;28;24803;-71
2022/09/02 00:43:07;;;;;;;5.23;2.97;;;;;;;12.73;100.00;95906.09;4988118;28;24533;-71
2022/09/02 00:45:35;;;;;;;4.60;3.00;;;;;;;12.66;100.00;95894.47;4980108;28;24448;-71
2022/09/02 00:48:01;;;;;;;4.07;2.80;;;;;;;12.75;100.00;95899.00;4983008;28;25042;-71
2022/09/02 00:50:30;;;;;;;3.53;2.83;;;;;;;12.68;100.00;95891.75;4989752;28;24441;-72
2022/09/02 00:53:02;;;;;;;4.55;3.38;;;;;;;12.71;100.00;95894.97;4987808;28;24429;-71
2022/09/02 00:55:31;;;;;;;3.42;2.80;;;;;;;12.69;100.00;95893.44;4985113;28;25010;-71
2022/09/02 00:58:03;;;;;;;3.58;3.20;;;;;;;12.63;100.00;95897.28;4985157;28;24433;-71
2022/09/02 01:00:36;;;;;;;3.90;3.10;;;;;;;12.52;100.00;95895.41;4990073;28;24445;-71
2022/09/02 01:03:06;;;;;;;3.60;3.30;;;;;;;12.55;100.00;95897.81;4989739;28;24533;-71
2022/09/02 01:05:35;;;;;;;4.93;3.30;;;;;;;12.54;100.00;95906.53;4985914;28;24523;-71
2022/09/02 01:08:02;;;;;;;5.15;2.95;;;;;;;12.60;100.00;95898.31;4985728;28;24433;-71
2022/09/02 01:10:34;;;;;;;3.83;3.28;;;;;;;12.53;100.00;95902.28;4989682;28;24436;-71
2022/09/02 01:13:05;;;;;;;6.00;2.95;;;;;;;12.64;100.00;95903.28;4992397;28;25065;-71
2022/09/02 01:15:35;;;;;;;3.58;3.00;;;;;;;12.66;100.00;95898.84;4993126;28;24499;-71
2022/09/02 01:18:03;;;;;;;4.25;3.05;;;;;;;12.68;100.00;95896.94;4985810;28;24441;-71
2022/09/02 01:20:29;;;;;;;3.30;2.92;;;;;;;12.55;100.00;95897.81;4990696;28;24441;-71
2022/09/02 01:22:57;;;;;;;6.20;3.20;;;;;;;12.50;100.00;95899.06;4992563;28;24433;-71
2022/09/02 01:25:27;;;;;;;5.60;3.13;;;;;;;12.53;100.00;95894.50;4992733;28;24495;-71
2022/09/02 01:27:58;;;;;;;3.38;2.90;;;;;;;12.59;100.00;95901.00;4987613;28;24471;-71
2022/09/02 01:30:25;;;;;;;3.38;2.90;;;;;;;12.52;100.00;95898.00;4988251;28;24441;-71
2022/09/02 01:32:52;;;;;;;3.45;3.10;;;;;;;12.62;100.00;95898.22;4992514;28;24448;-71
2022/09/02 01:35:19;;;;;;;4.63;3.10;;;;;;;12.47;100.00;95894.91;4992551;28;24456;-71
2022/09/02 01:37:47;;;;;;;4.47;2.60;;;;;;;12.27;100.00;95898.00;4987396;28;24448;-71
2022/09/02 01:40:16;;;;;;;3.42;2.80;;;;;;;12.22;100.00;95889.69;4990023;28;24579;-71
2022/09/02 01:42:44;;;;;;;4.97;2.42;;;;;;;12.06;100.00;95892.50;4992004;28;24514;-71
2022/09/02 01:45:11;;;;;;;3.53;2.25;;;;;;;11.91;100.00;95883.97;4985437;28;24445;-72
2022/09/02 01:47:38;;;;;;;4.28;2.25;;;;;;;11.93;100.00;95889.88;4987919;28;24535;-72
2022/09/02 01:50:05;;;;;;;3.00;2.50;;;;;;;11.83;100.00;95891.41;4990321;28;24437;-72
2022/09/02 01:52:32;;;;;;;4.90;2.97;;;;;;;11.81;100.00;95891.47;4990743;28;24452;-72
2022/09/02 01:54:59;;;;;;;3.33;3.03;;;;;;;11.85;100.00;95881.78;4985035;28;24445;-71
2022/09/02 01:57:27;;;;;;;3.40;2.67;;;;;;;11.73;100.00;95882.56;4987778;28;24469;-71
2022/09/02 01:59:54;;;;;;;4.90;3.22;;;;;;;11.71;100.00;95882.63;4986070;28;24448;-71
2022/09/02 02:02:21;;;;;;;4.65;3.05;;;;;;;11.65;100.00;95883.06;4990086;28;24508;-71
2022/09/02 02:04:48;;;;;;;5.53;3.10;;;;;;;11.70;100.00;95880.16;4991050;28;24811;-71
2022/09/02 02:07:17;;;;;;;4.85;3.40;;;;;;;11.74;100.00;95876.41;4982309;28;24792;-71
2022/09/02 02:09:44;;;;;;;3.80;3.30;;;;;;;11.83;100.00;95883.63;4990340;28;25013;-72
2022/09/02 02:12:11;;;;;;;5.18;3.70;;;;;;;11.80;100.00;95879.44;4989146;28;24437;-72
2022/09/02 02:14:39;;;;;;;4.50;3.33;;;;;;;11.86;100.00;95875.63;4990343;28;24460;-71
2022/09/02 02:17:06;;;;;;;3.58;2.95;;;;;;;11.82;100.00;95876.75;4987054;28;24528;-71
2022/09/02 02:19:32;;;;;;;5.00;3.38;;;;;;;11.74;100.00;95887.63;5032227;23;24811;-73
2022/09/02 02:21:59;;;;;;;4.07;3.67;;;;;;;11.62;100.00;95878.06;5014582;28;24440;-75
2022/09/02 02:24:26;;;;;;;3.53;2.88;;;;;;;11.71;100.00;95880.03;5024146;28;25015;-75
2022/09/02 02:26:53;;;;;;;5.45;3.72;;;;;;;11.71;100.00;95874.03;5025391;28;24435;-75
2022/09/02 02:29:20;;;;;;;5.03;3.13;;;;;;;11.77;100.00;95878.81;5027495;28;24444;-72
2022/09/02 02:31:48;;;;;;;4.57;2.90;;;;;;;11.77;100.00;95873.63;5030684;28;24443;-73
2022/09/02 02:34:14;;;;;;;5.20;3.30;;;;;;;11.72;100.00;95866.16;5030676;28;24436;-73
2022/09/02 02:36:41;;;;;;;3.80;2.78;;;;;;;11.78;100.00;95862.31;5025339;28;24440;-72
2022/09/02 02:39:10;;;;;;;8.20;3.78;;;;;;;11.67;100.00;95872.56;5030550;28;24443;-72
2022/09/02 02:41:37;;;;;;;4.15;3.10;;;;;;;11.65;100.00;95867.50;5024546;28;24433;-72
2022/09/02 02:44:04;;;;;;;3.97;2.83;;;;;;;11.63;100.00;95872.75;5021129;28;24794;-73
2022/09/02 02:46:32;;;;;;;3.58;2.90;;;;;;;11.62;100.00;95867.69;5031045;28;24428;-73
2022/09/02 02:49:00;;;;;;;3.70;3.35;;;;;;;11.56;100.00;95866.31;5030106;28;24939;-73
2022/09/02 02:51:26;;;;;;;3.88;3.30;;;;;;;11.56;100.00;95870.66;5027417;28;25024;-72
2022/09/02 02:53:53;;;;;;;4.72;3.50;;;;;;;11.60;100.00;95872.13;5030716;28;24440;-73
2022/09/02 02:56:19;;;;;;;5.18;3.15;;;;;;;11.62;100.00;95870.28;5030667;28;24452;-73
2022/09/02 02:58:46;;;;;;;3.47;3.00;;;;;;;11.60;100.00;95869.53;5027546;28;24438;-72
2022/09/02 03:01:12;;;;;;;3.85;3.00;;;;;;;11.61;100.00;95873.81;5029634;28;24813;-72
2022/09/02 03:03:41;;;;;;;5.05;3.20;;;;;;;11.65;100.00;95871.84;5031160;28;24455;-73
2022/09/02 03:06:09;;;;;;;4.10;3.08;;;;;;;11.66;100.00;95874.34;5045267;28;24428;-73
2022/09/02 03:08:36;;;;;;;3.38;2.83;;;;;;;11.61;100.00;95868.63;5034193;28;24466;-73
2022/09/02 03:11:04;;;;;;;4.70;2.97;;;;;;;11.56;100.00;95871.50;5030307;28;24436;-73
2022/09/02 03:13:32;;;;;;;2.78;2.40;;;;;;;11.55;100.00;95869.00;5030700;28;24432;-73
2022/09/02 03:15:59;;;;;;;4.15;2.65;;;;;;;11.46;100.00;95867.00;5030726;28;24992;-73
2022/09/02 03:18:25;;;;;;;5.22;2.70;;;;;;;11.32;100.00;95862.72;5029137;28;24431;-73
2022/09/02 03:20:52;;;;;;;3.93;2.30;;;;;;;11.25;100.00;95862.28;5030187;28;24439;-74
2022/09/02 03:23:20;;;;;;;3.05;2.40;;;;;;;11.21;100.00;95860.00;5030770;28;24451;-73
2022/09/02 03:25:47;;;;;;;2.42;2.10;;;;;;;11.10;100.00;95861.50;5026774;28;25048;-73
2022/09/02 03:28:14;;;;;;;3.45;2.30;;;;;;;11.04;100.00;95864.47;5029461;28;24498;-73
2022/09/02 03:30:41;;;;;;;3.20;2.15;;;;;;;10.88;100.00;95862.00;5029016;28;24479;-73
2022/09/02 03:33:08;;;;;;;3.17;2.88;;;;;;;10.89;100.00;95862.84;5020684;28;25016;-73
2022/09/02 03:35:39;;;;;;;3.53;2.47;;;;;;;10.83;100.00;95856.28;5029933;28;24806;-73
2022/09/02 03:38:06;;;;;;;5.78;3.03;;;;;;;10.72;100.00;95863.91;5029528;28;24443;-73
2022/09/02 03:40:34;;;;;;;4.25;2.90;;;;;;;10.95;100.00;95856.44;5021405;28;24458;-73
2022/09/02 03:43:00;;;;;;;4.82;3.22;;;;;;;10.85;100.00;95859.59;5020958;28;24443;-73
2022/09/02 03:45:27;;;;;;;3.88;3.00;;;;;;;10.86;100.00;95860.44;5024436;28;24436;-72
2022/09/02 03:47:54;;;;;;;3.90;2.67;;;;;;;10.87;100.00;95852.59;5029449;28;24447;-72
2022/09/02 03:50:23;;;;;;;2.50;2.30;;;;;;;10.88;100.00;95858.59;5025551;28;24443;-73
2022/09/02 03:52:50;;;;;;;2.83;2.40;;;;;;;10.88;100.00;95854.25;5028966;28;24817;-73
2022/09/02 03:55:17;;;;;;;3.30;2.30;;;;;;;10.85;100.00;95862.19;5029579;28;24463;-73
2022/09/02 03:57:45;;;;;;;3.80;2.75;;;;;;;10.85;100.00;95854.44;5025220;28;24444;-72
2022/09/02 04:00:14;;;;;;;2.83;2.53;;;;;;;10.80;100.00;95866.84;5024263;28;26156;-72
2022/09/02 04:02:41;;;;;;;4.80;2.90;;;;;;;10.84;100.00;95857.94;5022958;28;24444;-72
2022/09/02 04:05:08;;;;;;;3.47;2.78;;;;;;;10.84;100.00;95855.38;5029413;28;24494;-72
2022/09/02 04:07:35;;;;;;;5.07;3.00;;;;;;;10.80;100.00;95860.84;5018461;28;24513;-73
2022/09/02 04:10:02;;;;;;;3.57;2.67;;;;;;;10.79;100.00;95857.41;5029090;28;24442;-72
2022/09/02 04:12:28;;;;;;;5.30;2.90;;;;;;;10.71;100.00;95857.03;5029414;28;24439;-72
2022/09/02 04:14:56;;;;;;;3.45;3.15;;;;;;;10.74;100.00;95851.66;5029217;28;24432;-73
2022/09/02 04:17:22;;;;;;;3.20;2.85;;;;;;;10.79;100.00;95854.81;5028810;28;24447;-73
2022/09/02 04:19:49;;;;;;;5.32;3.03;;;;;;;10.81;100.00;95852.94;5024052;28;24440;-73
2022/09/02 04:22:15;;;;;;;4.47;2.72;;;;;;;10.82;100.00;95856.38;5029223;28;24979;-73
2022/09/02 04:24:42;;;;;;;2.50;2.30;;;;;;;10.74;100.00;95850.84;5033430;28;24799;-73
2022/09/02 04:27:08;;;;;;;5.13;2.53;;;;;;;10.78;100.00;95855.72;5026094;28;24431;-73
2022/09/02 04:29:35;;;;;;;3.75;2.70;;;;;;;10.55;100.00;95849.38;5033018;28;24439;-72
2022/09/02 04:32:03;;;;;;;5.25;2.80;;;;;;;10.52;100.00;95857.34;5030957;28;24824;-72
2022/09/02 04:34:30;;;;;;;3.40;2.83;;;;;;;10.53;100.00;95851.25;5032818;28;24443;-73
2022/09/02 04:36:56;;;;;;;5.73;2.90;;;;;;;10.49;100.00;95854.09;5032736;28;24535;-73
2022/09/02 04:39:23;;;;;;;3.45;2.60;;;;;;;10.41;100.00;95852.81;5033121;28;24463;-72
2022/09/02 04:41:49;;;;;;;4.90;2.53;;;;;;;10.36;100.00;95851.44;5032412;28;24456;-72
2022/09/02 04:44:16;;;;;;;3.50;3.03;;;;;;;10.37;100.00;95859.09;5033310;28;24524;-72
2022/09/02 04:46:42;;;;;;;3.22;2.90;;;;;;;10.38;100.00;95853.03;5032958;28;24798;-71
2022/09/02 04:49:10;;;;;;;5.22;2.85;;;;;;;10.38;100.00;95850.44;5032798;28;24451;-71
2022/09/02 04:51:37;;;;;;;3.88;3.13;;;;;;;10.49;100.00;95854.09;5031589;28;24440;-71
2022/09/02 04:54:03;;;;;;;6.38;3.35;;;;;;;10.41;100.00;95847.63;5032567;28;24443;-71
2022/09/02 04:56:31;;;;;;;3.67;3.10;;;;;;;10.34;100.00;95851.50;5033007;28;24459;-71
2022/09/02 04:58:58;;;;;;;5.63;3.35;;;;;;;10.34;100.00;95855.88;5032510;28;24486;-71
2022/09/02 05:01:27;;;;;;;5.60;3.60;;;;;;;10.35;100.00;95855.78;5025603;28;24442;-72
2022/09/02 05:03:54;;;;;;;4.68;3.55;;;;;;;10.37;100.00;95850.50;5032648;28;24451;-71
2022/09/02 05:06:26;;;;;;;2.83;2.60;;;;;;;10.39;100.00;95854.69;5028790;28;24432;-72
2022/09/02 05:08:53;;;;;;;4.32;2.75;;;;;;;10.40;100.00;95856.34;5031875;28;24439;-71
2022/09/02 05:11:22;;;;;;;10.02;3.15;;;;;;;10.34;100.00;95855.88;5031819;28;24470;-71
2022/09/02 05:13:51;;;;;;;6.50;3.40;;;;;;;10.40;100.00;95853.75;5032585;28;24440;-72
2022/09/02 05:16:19;;;;;;;6.43;3.90;;;;;;;10.46;100.00;95847.38;5032543;28;25070;-71
2022/09/02 05:18:46;;;;;;;8.38;3.80;;;;;;;10.41;100.00;95842.44;5029644;28;24526;-72
2022/09/02 05:21:13;;;;;;;4.38;3.63;;;;;;;10.41;100.00;95846.81;5029166;28;24444;-71
2022/09/02 05:23:41;;;;;;;4.53;3.25;;;;;;;10.47;100.00;95846.44;5032410;28;24442;-72
2022/09/02 05:26:09;;;;;;;3.45;3.15;;;;;;;10.57;100.00;95851.91;5030520;28;24443;-71
2022/09/02 05:28:37;;;;;;;9.27;4.25;;;;;;;10.68;100.00;95841.72;5026976;28;24805;-71
2022/09/02 05:31:05;;;;;;;4.32;3.35;;;;;;;10.85;100.00;95851.84;5030137;28;24490;-72
2022/09/02 05:33:32;;;;;;;8.02;3.45;;;;;;;11.02;100.00;95847.38;5031144;28;24519;-72
2022/09/02 05:35:59;;;;;;;3.08;2.78;;;;;;;11.11;100.00;95850.19;5031511;28;24460;-71
2022/09/02 05:38:26;;;;;;;4.95;2.42;;;;;;;11.04;100.00;95850.69;5028258;28;24494;-72
2022/09/02 05:40:53;;;;;;;4.38;2.55;;;;;;;11.04;100.00;95850.69;5031980;28;24432;-71
2022/09/02 05:43:20;;;;;;;2.65;2.42;;;;;;;10.97;100.00;95858.00;5029772;28;24440;-71
2022/09/02 05:45:47;;;;;;;4.15;2.20;;;;;;;10.94;100.00;95854.78;5027350;28;24438;-71
2022/09/02 05:50:58;;;;;;;3.23;2.33;;;;;;;11.08;100.00;95852.97;5029660;28;24547;-73
2022/09/02 05:53:25;;;;;;;2.65;2.28;;;;;;;11.21;100.00;95857.41;5019459;28;24444;-72
2022/09/02 05:55:52;;;;;;;2.75;2.55;;;;;;;11.21;100.00;95853.03;5027501;28;24448;-72
2022/09/02 05:58:20;;;;;;;3.80;2.50;;;;;;;11.42;100.00;95856.03;5030999;28;24446;-73
2022/09/02 06:00:46;;;;;;;2.45;2.25;;;;;;;11.62;100.00;95850.34;5031102;28;24443;-74
2022/09/02 06:03:13;;;;;;;4.57;2.60;;;;;;;11.90;100.00;95851.13;5029439;28;25210;-73
2022/09/02 06:05:41;;;;;;;3.80;2.60;;;;;;;12.10;100.00;95850.66;5032107;28;24443;-72
2022/09/02 06:08:07;;;;;;;3.38;2.70;;;;;;;12.29;100.00;95854.59;5021911;28;24490;-73
2022/09/02 06:10:35;;;;;;;3.20;2.75;;;;;;;12.53;100.00;95854.66;5027914;28;24444;-73
2022/09/02 06:13:01;;;;;;;3.78;2.80;;;;;;;12.73;100.00;95856.72;5031323;28;24448;-73
2022/09/02 06:15:29;;;;;;;14.13;2.97;;;;;;;12.94;100.00;95857.00;5030075;28;24439;-68
2022/09/02 06:17:58;;;;;;;3.60;2.60;;;;;;;13.11;100.00;95853.19;5031762;28;24554;-74
2022/09/02 06:20:24;;;;;;;3.70;3.33;;;;;;;13.27;100.00;95845.13;5031568;28;25046;-75
2022/09/02 06:22:51;;;;;;;5.60;3.47;;;;;;;13.26;100.00;95844.31;5026308;28;24447;-76
2022/09/02 06:25:19;;;;;;;3.00;2.70;;;;;;;13.43;100.00;95842.25;5025089;28;24443;-75
2022/09/02 06:27:46;;;;;;;3.28;2.78;;;;;;;13.56;100.00;95846.44;5031485;28;24436;-74
2022/09/02 06:30:13;;;;;;;5.80;3.40;;;;;;;13.74;100.00;95848.63;5028904;28;24441;-74
2022/09/02 06:32:40;;;;;;;3.80;3.00;;;;;;;13.76;100.00;95842.38;5031113;28;24443;-74
2022/09/02 06:35:09;;;;;;;3.95;2.75;;;;;;;13.64;100.00;95847.66;5031113;28;24519;-74
2022/09/02 06:37:36;;;;;;;5.47;2.97;;;;;;;13.63;100.00;95848.59;5027419;28;24535;-73
2022/09/02 06:40:03;;;;;;;4.15;2.95;;;;;;;13.66;100.00;95838.78;5025409;28;24801;-73
2022/09/02 06:42:30;;;;;;;3.70;2.95;;;;;;;13.67;100.00;95845.66;5025675;28;24514;-73
2022/09/02 06:44:56;;;;;;;3.70;3.03;;;;;;;13.58;100.00;95841.13;5028776;28;24988;-73
2022/09/02 06:47:23;;;;;;;5.20;2.90;;;;;;;13.61;100.00;95845.25;5026987;28;24459;-74
2022/09/02 06:49:50;;;;;;;3.25;2.50;;;;;;;13.97;100.00;95849.53;5023055;28;24456;-72
2022/09/02 06:52:17;;;;;;;2.93;2.57;;;;;;;14.13;100.00;95842.22;5025064;28;24525;-72
2022/09/02 06:54:43;;;;;;;7.30;2.80;;;;;;;14.43;100.00;95843.44;5027914;28;24443;-73
2022/09/02 06:57:10;;;;;;;3.47;2.42;;;;;;;14.74;100.00;95850.56;5029562;28;25012;-75
2022/09/02 06:59:37;;;;;;;3.28;2.30;;;;;;;15.04;100.00;95849.09;5030691;28;24805;-74
2022/09/02 07:02:04;;;;;;;2.83;2.60;;;;;;;15.40;100.00;95841.91;5022442;28;24447;-73
2022/09/02 07:07:16;;;;;;;3.95;2.70;;;;;;;15.41;100.00;95836.53;5027858;28;24446;-74
2022/09/02 07:09:43;;;;;;;4.00;2.20;;;;;;;15.58;100.00;95834.34;5030619;28;24428;-75
2022/09/02 07:12:09;;;;;;;2.80;2.33;;;;;;;15.81;100.00;95832.50;5030769;28;24802;-74
2022/09/02 07:14:37;;;;;;;2.75;2.47;;;;;;;16.19;100.00;95832.72;5030581;28;24440;-74
2022/09/02 07:17:04;;;;;;;3.28;2.47;;;;;;;16.49;100.00;95831.09;5030687;28;24462;-74
2022/09/02 07:19:31;;;;;;;3.22;2.25;;;;;;;16.45;98.15;95830.53;5030366;28;24447;-74
2022/09/02 07:21:57;;;;;;;3.45;2.25;;;;;;;16.75;98.53;95831.50;5030434;28;24444;-74
2022/09/02 07:24:25;;;;;;;2.40;2.10;;;;;;;16.96;95.24;95825.38;5030511;28;24818;-74
2022/09/02 07:26:52;;;;;;;3.33;2.25;;;;;;;16.95;91.37;95826.34;5026898;28;24432;-74
2022/09/02 07:29:18;;;;;;;2.55;2.28;;;;;;;17.02;96.75;95825.66;5018669;28;24443;-74
2022/09/02 07:31:48;;;;;;;3.60;1.80;;;;;;;17.40;93.90;95817.03;5023518;28;25008;-74
2022/09/02 07:34:16;;;;;;;3.00;1.90;;;;;;;17.47;94.77;95822.56;5027256;28;24432;-74
2022/09/02 07:36:44;;;;;;;3.55;2.00;;;;;;;18.06;88.83;95826.00;5024295;28;24502;-74
2022/09/02 07:39:12;;;;;;;3.97;2.10;;;;;;;17.80;87.29;95823.13;5027251;28;24486;-73
2022/09/02 07:41:44;;;;;;;3.70;2.30;;;;;;;17.53;90.94;95826.41;5019732;28;24456;-74
2022/09/02 07:44:11;;;;;;;3.22;2.00;;;;;;;17.82;85.68;95819.38;5030363;28;24431;-74
2022/09/02 07:46:38;;;;;;;4.25;2.28;;;;;;;17.64;87.75;95826.25;5029688;28;24436;-75
2022/09/02 07:49:08;;;;;;;1.75;1.55;;;;;;;17.88;85.48;95824.09;5029513;28;24468;-72
2022/09/02 07:51:35;;;;;;;2.35;1.67;;;;;;;18.29;82.53;95818.63;5024862;28;24447;-73
2022/09/02 07:54:04;;;;;;;3.10;1.50;;;;;;;18.60;78.33;95820.00;5028705;28;24436;-73
2022/09/02 07:56:31;;;;;;;2.65;1.50;;;;;;;18.85;80.58;95817.75;5020769;28;24452;-74
2022/09/02 07:58:59;;;;;;;3.05;1.55;;;;;;;19.17;82.12;95814.66;5028737;28;24440;-73
2022/09/02 08:01:27;;;;;;;2.67;1.60;;;;;;;19.27;77.67;95819.84;5022780;28;24539;-74
2022/09/02 08:03:53;;;;;;;3.72;1.95;;;;;;;19.22;76.16;95814.22;5030073;28;24451;-74
2022/09/02 08:06:23;;;;;;;4.13;1.83;;;;;;;19.18;76.80;95820.72;5026386;28;24523;-74
2022/09/02 08:08:50;;;;;;;2.92;1.85;;;;;;;19.05;75.12;95819.25;5022526;28;24502;-73
2022/09/02 08:11:16;;;;;;;4.63;1.73;;;;;;;19.00;79.06;95818.06;5029321;28;25017;-73
2022/09/02 08:13:43;;;;;;;3.80;1.92;;;;;;;19.08;77.10;95820.78;5029487;28;24459;-74
2022/09/02 08:16:11;;;;;;;6.50;2.00;;;;;;;18.93;74.72;95823.06;5027591;28;24451;-73
2022/09/02 08:18:38;;;;;;;3.17;1.52;;;;;;;18.59;74.33;95823.63;5027936;28;24435;-73
2022/09/02 08:21:04;;;;;;;3.33;1.50;;;;;;;18.79;74.42;95824.38;5029746;28;24443;-74
2022/09/02 08:23:31;;;;;;;3.15;1.80;;;;;;;19.01;75.78;95828.41;5029858;28;24432;-74
2022/09/02 08:25:58;;;;;;;3.50;1.80;;;;;;;19.27;76.41;95823.28;5022273;28;24443;-74
2022/09/02 08:28:25;;;;;;;3.75;1.92;;;;;;;19.25;71.34;95825.25;5027853;28;24432;-74
2022/09/02 08:30:53;;;;;;;1.95;1.40;;;;;;;19.46;69.99;95826.75;5029692;28;24475;-74
2022/09/02 08:33:21;;;;;;;4.03;1.60;;;;;;;19.64;73.03;95822.34;5018917;28;24517;-74
2022/09/02 08:35:47;;;;;;;5.82;1.58;;;;;;;19.76;70.58;95820.31;5022637;28;24436;-73
2022/09/02 08:38:14;;;;;;;3.20;1.67;;;;;;;19.80;69.70;95819.88;5029437;28;24505;-73
2022/09/02 08:40:43;;;;;;;2.55;1.23;;;;;;;20.10;69.17;95825.69;5029752;28;24443;-74
2022/09/02 08:43:24;;;;;;;1.80;1.17;;;;;;;20.18;66.78;95822.28;5028952;28;24428;-74
2022/09/02 08:45:53;;;;;;;3.37;1.83;;;;;;;20.25;71.88;95811.00;5029510;28;24514;-74
2022/09/02 08:48:28;;;;;;;2.65;1.60;;;;;;;20.44;68.08;95809.13;5025425;28;24797;-74
2022/09/02 08:51:01;;;;;;;2.60;1.40;;;;;;;20.56;62.93;95814.97;5022281;28;24435;-74
2022/09/02 08:53:31;;;;;;;1.95;1.35;;;;;;;20.56;64.43;95815.78;5024308;28;25016;-74
2022/09/02 08:56:00;;;;;;;5.55;1.58;;;;;;;20.65;63.46;95819.28;5027171;28;25351;-73
2022/09/02 08:58:30;;;;;;;2.80;1.40;;;;;;;20.68;62.36;95813.72;5028289;28;24483;-73
2022/09/02 09:01:08;;;;;;;1.85;1.35;;;;;;;20.60;61.21;95809.22;5028320;28;24540;-73
2022/09/02 09:03:43;;;;;;;2.80;1.30;;;;;;;20.73;64.47;95806.19;5027545;28;24510;-73
2022/09/02 09:06:16;;;;;;;3.15;1.30;;;;;;;20.82;64.69;95805.22;5025005;28;24466;-75
2022/09/02 09:08:51;;;;;;;4.13;1.25;;;;;;;20.93;60.68;95799.66;5030297;28;24443;-73
2022/09/02 09:11:23;;;;;;;2.53;1.50;;;;;;;20.89;62.35;95803.59;5032587;28;24996;-76
2022/09/02 09:14:19;;;;;;;2.10;1.50;;;;;;;20.91;64.38;95808.69;5031778;28;24443;-73
2022/09/02 09:16:53;;;;;;;3.05;1.40;;;;;;;21.07;62.09;95803.50;5035751;28;24857;-73
2022/09/02 09:19:32;;;;;;;3.70;1.20;;;;;;;21.30;61.58;95800.25;5031354;28;24471;-73
2022/09/02 09:22:02;;;;;;;3.40;1.45;;;;;;;21.34;61.56;95794.53;5030307;28;24443;-73
2022/09/02 09:24:35;;;;;;;1.55;1.25;;;;;;;21.19;60.03;95790.84;5030328;28;24446;-73
2022/09/02 09:27:04;;;;;;;2.07;1.10;;;;;;;20.95;57.46;95796.88;5032500;28;24509;-73
2022/09/02 09:29:32;;;;;;;2.78;1.30;;;;;;;20.85;57.20;95799.66;5032388;28;24435;-73
2022/09/02 09:32:00;;;;;;;2.60;1.38;;;;;;;20.88;57.58;95801.97;5030004;28;24440;-73
2022/09/02 09:34:58;;;;;;;2.35;1.35;;;;;;;21.09;57.61;95784.91;5032489;28;24455;-73
2022/09/02 09:37:31;;;;;;;2.35;1.42;;;;;;;21.15;60.46;95793.00;5023813;28;24491;-73
2022/09/02 09:39:57;;;;;;;2.65;1.30;;;;;;;21.37;63.49;95791.59;5030518;28;24452;-73
2022/09/02 09:42:32;;;;;;;2.13;1.40;;;;;;;21.41;57.75;95785.00;5025290;28;24444;-73
2022/09/02 09:44:58;;;;;;;2.50;1.50;;;;;;;21.34;60.95;95786.63;5021294;28;24440;-73
2022/09/02 09:47:26;;;;;;;5.15;1.50;;;;;;;21.62;59.50;95796.88;5032023;28;24428;-73
2022/09/02 09:50:08;;;;;;;3.58;1.42;;;;;;;21.40;60.35;95788.63;5030356;28;24440;-73
2022/09/02 09:52:36;;;;;;;3.40;1.48;;;;;;;21.59;57.78;95782.22;5031515;28;24436;-73
2022/09/02 09:55:10;;;;;;;5.10;1.50;;;;;;;21.76;56.69;95772.50;5029211;28;25098;-73
2022/09/02 09:57:37;;;;;;;2.42;1.60;;;;;;;21.69;57.93;95768.88;5023543;28;24479;-73
2022/09/02 10:00:13;;;;;;;2.83;1.50;;;;;;;21.22;59.34;95777.38;5025700;28;24490;-73
2022/09/02 10:02:47;;;;;;;1.40;1.20;;;;;;;21.42;62.15;95780.56;5026562;28;24436;-73
2022/09/02 10:05:35;;;;;;;2.47;1.55;;;;;;;21.57;57.89;95778.09;5031363;28;24438;-74
2022/09/02 10:08:05;;;;;;;1.95;1.20;;;;;;;21.84;62.49;95774.28;5031377;28;24435;-73
2022/09/02 10:10:33;;;;;;;3.65;1.40;;;;;;;21.62;58.78;95774.00;5031316;28;25011;-73
2022/09/02 10:13:17;;;;;;;4.30;1.70;;;;;;;21.40;59.76;95782.53;5030313;28;24834;-74
2022/09/02 10:15:59;;;;;;;2.80;1.75;;;;;;;21.60;58.04;95770.69;5027520;28;24447;-74
2022/09/02 10:18:35;;;;;;;4.05;1.25;;;;;;;21.88;61.33;95768.53;5024519;28;24451;-73
2022/09/02 10:21:10;;;;;;;3.13;1.40;;;;;;;22.12;55.82;95772.94;5027470;28;24443;-72
2022/09/02 10:23:48;;;;;;;1.50;1.17;;;;;;;22.25;58.41;95766.34;5031546;28;24428;-72
2022/09/02 10:26:25;;;;;;;2.78;1.40;;;;;;;22.15;55.60;95758.66;5031341;28;24493;-72
2022/09/02 10:29:19;;;;;;;2.63;1.52;;;;;;;22.03;56.60;95762.59;5031025;28;24518;-74
2022/09/02 10:31:59;;;;;;;2.53;1.35;;;;;;;21.85;56.48;95757.50;5024173;28;24436;-74
2022/09/02 10:34:35;;;;;;;5.57;1.70;;;;;;;22.01;60.04;95754.84;5030799;28;24435;-73
2022/09/02 10:37:17;;;;;;;4.17;1.30;;;;;;;22.09;58.88;95749.53;5023972;28;24459;-74
2022/09/02 10:40:12;;;;;;;2.83;1.50;;;;;;;21.98;55.50;95745.44;5025859;28;25019;-74
2022/09/02 10:43:00;;;;;;;2.10;1.10;;;;;;;21.92;59.22;95742.66;5011146;28;24639;-73
2022/09/02 10:45:34;;;;;;;4.88;1.40;;;;;;;22.10;56.17;95737.19;5030979;28;24471;-73
2022/09/02 10:48:19;;;;;;;3.47;1.35;;;;;;;22.16;61.49;95729.44;5029313;28;24511;-73
2022/09/02 10:50:52;;;;;;;3.60;1.42;;;;;;;22.17;57.09;95732.91;5029243;28;24440;-74
2022/09/02 10:53:32;;;;;;;3.15;1.40;;;;;;;21.94;58.18;95724.84;5030287;28;24478;-73
2022/09/02 10:56:03;;;;;;;1.40;1.10;;;;;;;21.99;59.59;95726.00;5028585;28;24435;-73
2022/09/02 10:58:40;;;;;;;2.92;1.23;;;;;;;22.25;54.91;95714.44;5030515;28;24455;-73
2022/09/02 11:01:12;;;;;;;2.88;1.52;;;;;;;22.49;58.74;95720.63;5030759;28;24532;-73
2022/09/02 11:03:42;;;;;;;2.40;1.20;;;;;;;22.62;52.80;95712.94;5030871;28;24529;-73
2022/09/02 11:06:14;;;;;;;2.22;1.40;;;;;;;22.75;57.17;95709.78;5030749;28;24447;-73
2022/09/02 11:08:46;;;;;;;2.90;1.33;;;;;;;22.71;56.16;95709.28;5030540;28;25253;-73
2022/09/02 11:11:20;;;;;;;1.75;1.02;;;;;;;22.52;54.27;95707.91;5030481;28;24436;-73
2022/09/02 11:13:58;;;;;;;2.03;1.10;;;;;;;22.50;53.43;95706.41;5030982;28;24428;-73
2022/09/02 11:16:30;;;;;;;3.70;1.27;;;;;;;22.28;52.95;95706.16;5023311;28;24976;-73
2022/09/02 11:19:02;;;;;;;3.70;1.42;;;;;;;22.74;56.52;95708.97;5030252;28;24444;-73
2022/09/02 11:21:42;;;;;;;3.40;1.40;;;;;;;22.73;55.01;95699.41;5029860;28;24450;-73
2022/09/02 11:24:14;;;;;;;1.73;1.20;;;;;;;22.73;52.89;95691.47;5029571;28;24528;-73
2022/09/02 11:26:56;;;;;;;2.03;1.25;;;;;;;22.51;53.61;95692.22;5030543;28;24897;-73
2022/09/02 11:29:34;;;;;;;1.73;0.90;;;;;;;22.27;51.62;95701.88;5022856;28;24435;-73
2022/09/02 11:32:08;;;;;;;1.95;1.20;;;;;;;22.20;50.01;95701.75;5030016;28;24515;-73
2022/09/02 11:34:39;;;;;;;2.40;1.30;;;;;;;22.29;50.90;95697.28;5030326;28;24789;-73
2022/09/02 11:37:08;;;;;;;3.60;0.98;;;;;;;22.21;51.01;95702.56;5029820;28;24428;-73
2022/09/02 11:39:40;;;;;;;3.28;1.20;;;;;;;22.37;48.88;95699.88;5029999;28;24972;-73
2022/09/02 11:42:31;;;;;;;1.90;1.10;;;;;;;22.32;51.81;95704.84;5029916;28;24435;-73
2022/09/02 11:45:21;;;;;;;1.95;1.20;;;;;;;22.16;48.81;95696.97;5030239;28;24826;-73